Time;durP1;ratioP1;P1;durP2;ratioP2;P2;SDS_P1;SDS_P2;PMS_P1;PMS_P2;Temp;Humidity;BMP_temperature;BMP_pressure;BME280_temperature;BME280_humidity;BME280_pressure;Samples;Min_cycle;Max_cycle;Signal;HPM_P1;HPM_P2
2021/05/22 00:00:44;;;;;;;19.27;3.20;;;8.70;99.90;;;;;;4995047;28;20062;-81
2021/05/22 00:03:09;;;;;;;22.38;5.13;;;8.70;99.90;;;;;;4993603;28;20026;-82
2021/05/22 00:05:35;;;;;;;12.85;3.25;;;8.80;99.90;;;;;;4977244;28;20031;-80
2021/05/22 00:08:01;;;;;;;19.67;3.13;;;8.80;99.90;;;;;;4977360;28;20026;-81
2021/05/22 00:10:26;;;;;;;11.32;2.70;;;8.80;99.90;;;;;;4994641;28;20026;-81
2021/05/22 00:12:52;;;;;;;16.65;2.95;;;8.70;99.90;;;;;;4994901;28;20022;-81
2021/05/22 00:15:18;;;;;;;18.40;2.65;;;8.80;99.90;;;;;;4993350;28;20745;-81
2021/05/22 00:17:44;;;;;;;16.95;3.95;;;8.80;99.90;;;;;;4994542;28;20030;-81
2021/05/22 00:20:11;;;;;;;12.38;2.85;;;8.80;99.90;;;;;;4993315;28;20487;-81
2021/05/22 00:22:37;;;;;;;13.50;4.28;;;8.80;99.90;;;;;;4994637;28;20026;-81
2021/05/22 00:25:04;;;;;;;14.95;2.97;;;8.80;99.90;;;;;;4976919;28;20027;-82
2021/05/22 00:27:30;;;;;;;11.55;2.40;;;8.80;99.90;;;;;;4994687;28;20030;-81
2021/05/22 00:29:55;;;;;;;14.07;3.45;;;8.80;99.90;;;;;;4993266;28;20030;-81
2021/05/22 00:32:21;;;;;;;11.48;2.60;;;8.80;99.90;;;;;;4994583;28;20037;-81
2021/05/22 00:34:46;;;;;;;12.10;2.65;;;8.70;99.90;;;;;;4976480;28;20026;-81
2021/05/22 00:37:12;;;;;;;20.67;2.72;;;8.70;99.90;;;;;;4994204;28;20027;-82
2021/05/22 00:39:37;;;;;;;16.58;2.90;;;8.70;99.90;;;;;;4994349;28;20109;-81
2021/05/22 00:42:04;;;;;;;14.45;2.47;;;8.70;99.90;;;;;;4976771;28;20113;-82
2021/05/22 00:44:32;;;;;;;21.35;3.33;;;8.70;99.90;;;;;;4992854;28;20049;-83
2021/05/22 00:46:59;;;;;;;12.70;2.42;;;8.70;99.90;;;;;;4992534;28;20121;-83
2021/05/22 00:49:26;;;;;;;12.02;2.95;;;8.70;99.90;;;;;;4992509;28;20026;-82
2021/05/22 00:51:51;;;;;;;21.23;3.35;;;8.80;99.90;;;;;;4994148;28;20489;-82
2021/05/22 00:54:17;;;;;;;29.45;3.35;;;8.80;99.90;;;;;;4992569;28;20031;-82
2021/05/22 00:56:44;;;;;;;25.63;3.95;;;8.80;99.90;;;;;;4992756;28;20022;-83
2021/05/22 00:59:14;;;;;;;23.80;3.72;;;8.90;99.90;;;;;;4993679;28;20034;-81
2021/05/22 01:01:40;;;;;;;19.95;2.67;;;8.90;99.90;;;;;;4993801;28;20022;-81
2021/05/22 01:04:06;;;;;;;9.75;2.50;;;8.90;99.90;;;;;;4992163;28;20038;-81
2021/05/22 01:06:33;;;;;;;16.08;2.08;;;9.00;99.90;;;;;;4993742;28;20037;-81
2021/05/22 01:09:09;;;;;;;22.10;3.03;;;9.10;99.90;;;;;;4976081;28;20034;-81
2021/05/22 01:11:49;;;;;;;17.65;3.33;;;9.20;99.90;;;;;;4993772;28;20080;-82
2021/05/22 01:14:23;;;;;;;20.55;2.55;;;9.30;99.90;;;;;;4993365;28;20054;-82
2021/05/22 01:16:55;;;;;;;21.52;2.53;;;9.30;99.90;;;;;;4993702;28;20026;-82
2021/05/22 01:19:51;;;;;;;36.50;3.65;;;9.40;99.90;;;;;;4991761;28;20030;-81
2021/05/22 01:22:18;;;;;;;20.90;2.28;;;9.30;99.90;;;;;;4992262;28;20030;-82
2021/05/22 01:25:08;;;;;;;26.70;2.13;;;9.40;99.90;;;;;;4993108;28;20037;-81
2021/05/22 01:27:34;;;;;;;21.30;1.80;;;9.40;99.90;;;;;;4991924;28;20033;-81
2021/05/22 01:30:01;;;;;;;12.60;2.92;;;9.40;99.90;;;;;;4992137;28;20579;-81
2021/05/22 01:32:27;;;;;;;10.63;2.10;;;9.30;99.90;;;;;;4992051;28;20068;-82
2021/05/22 01:34:55;;;;;;;12.50;1.85;;;9.30;99.90;;;;;;4992759;28;20044;-81
2021/05/22 01:37:21;;;;;;;11.57;1.85;;;9.30;99.90;;;;;;4991896;28;20045;-81
2021/05/22 01:39:46;;;;;;;28.38;2.80;;;9.20;99.90;;;;;;4992890;28;20494;-82
2021/05/22 01:42:12;;;;;;;12.57;2.60;;;9.20;99.90;;;;;;4992387;28;20034;-81
2021/05/22 01:44:41;;;;;;;21.60;3.13;;;9.20;99.90;;;;;;4992737;28;20034;-81
2021/05/22 01:47:08;;;;;;;24.40;2.45;;;9.10;99.90;;;;;;4991909;28;20026;-81
2021/05/22 01:49:34;;;;;;;16.55;2.63;;;9.10;99.90;;;;;;4992670;28;20030;-82
2021/05/22 01:52:02;;;;;;;18.35;2.63;;;9.00;99.90;;;;;;4992924;28;20027;-82
2021/05/22 01:54:29;;;;;;;8.63;2.22;;;9.10;99.90;;;;;;4991505;28;20033;-83
2021/05/22 01:56:55;;;;;;;9.48;2.63;;;9.10;99.90;;;;;;4991928;28;20043;-82
2021/05/22 01:59:21;;;;;;;10.68;2.80;;;9.10;99.90;;;;;;4991430;28;20572;-81
2021/05/22 02:01:51;;;;;;;13.23;2.70;;;9.00;99.90;;;;;;4992920;28;20034;-81
2021/05/22 02:04:20;;;;;;;12.07;2.53;;;9.00;99.90;;;;;;4992124;28;20057;-82
2021/05/22 02:06:48;;;;;;;10.77;2.67;;;9.00;99.90;;;;;;4992764;28;20482;-82
2021/05/22 02:09:15;;;;;;;17.73;2.88;;;8.90;99.90;;;;;;4991138;28;20509;-81
2021/05/22 02:11:44;;;;;;;16.40;2.88;;;8.90;99.90;;;;;;4975290;28;20077;-81
2021/05/22 02:14:12;;;;;;;12.18;2.72;;;8.90;99.90;;;;;;4991254;28;20057;-82
2021/05/22 02:16:46;;;;;;;11.32;2.67;;;8.90;99.90;;;;;;4992552;28;20530;-82
2021/05/22 02:19:12;;;;;;;6.28;2.30;;;9.00;99.90;;;;;;4992385;28;20034;-81
2021/05/22 02:21:42;;;;;;;16.73;2.58;;;9.00;99.90;;;;;;4975143;28;20033;-81
2021/05/22 02:24:11;;;;;;;13.15;2.83;;;9.00;99.90;;;;;;4991206;28;20033;-81
2021/05/22 02:26:37;;;;;;;16.67;2.97;;;9.00;99.90;;;;;;4975029;28;20027;-81
2021/05/22 02:29:03;;;;;;;18.55;2.45;;;9.00;99.90;;;;;;4992205;28;20026;-81
2021/05/22 02:31:31;;;;;;;18.85;2.70;;;9.00;99.90;;;;;;4991849;28;20479;-81
2021/05/22 02:34:00;;;;;;;13.55;3.55;;;8.90;99.90;;;;;;4992022;28;20030;-80
2021/05/22 02:36:26;;;;;;;12.60;2.70;;;8.90;99.90;;;;;;4992343;28;20022;-81
2021/05/22 02:38:53;;;;;;;21.95;3.33;;;9.00;99.90;;;;;;4990873;28;20140;-80
2021/05/22 02:41:20;;;;;;;22.08;2.60;;;8.90;99.90;;;;;;4992401;28;20101;-82
2021/05/22 02:43:50;;;;;;;16.50;3.25;;;8.90;99.90;;;;;;4990864;28;20117;-83
2021/05/22 02:46:17;;;;;;;14.60;3.33;;;8.80;99.90;;;;;;4991009;28;20045;-81
2021/05/22 02:48:44;;;;;;;12.60;2.90;;;8.80;99.90;;;;;;4991752;28;20045;-81
2021/05/22 02:51:11;;;;;;;13.02;3.22;;;8.80;99.90;;;;;;4992272;28;20030;-82
2021/05/22 02:53:38;;;;;;;15.10;3.80;;;8.80;99.90;;;;;;4994384;28;20386;-81
2021/05/22 02:56:05;;;;;;;14.63;2.58;;;8.80;99.90;;;;;;4994846;28;20022;-81
2021/05/22 02:58:35;;;;;;;12.45;2.95;;;8.90;99.90;;;;;;4995279;28;20045;-81
2021/05/22 03:01:01;;;;;;;17.48;3.22;;;8.90;99.90;;;;;;4977460;28;20030;-81
2021/05/22 03:03:27;;;;;;;10.23;2.30;;;8.90;99.90;;;;;;4995768;28;20026;-81
2021/05/22 03:05:53;;;;;;;17.67;3.97;;;8.80;99.90;;;;;;4995869;28;20065;-81
2021/05/22 03:08:18;;;;;;;20.83;3.05;;;8.90;99.90;;;;;;4994735;28;20019;-82
2021/05/22 03:10:45;;;;;;;12.55;3.03;;;8.90;99.90;;;;;;4996150;28;20034;-81
2021/05/22 03:13:11;;;;;;;17.75;3.13;;;8.90;99.90;;;;;;4995897;28;20026;-81
2021/05/22 03:15:36;;;;;;;16.02;3.25;;;8.90;99.90;;;;;;4978196;28;20045;-81
2021/05/22 03:18:02;;;;;;;15.20;2.63;;;8.90;99.90;;;;;;4995618;28;20026;-82
2021/05/22 03:20:27;;;;;;;23.48;3.00;;;9.00;99.90;;;;;;4995785;28;20049;-81
2021/05/22 03:22:53;;;;;;;18.38;2.70;;;9.00;99.90;;;;;;4995821;28;20061;-82
2021/05/22 03:25:18;;;;;;;18.70;2.78;;;9.00;99.90;;;;;;4995495;28;20030;-81
2021/05/22 03:27:44;;;;;;;12.30;2.83;;;9.00;99.90;;;;;;4995425;28;20050;-82
2021/05/22 03:30:10;;;;;;;13.73;2.50;;;9.00;99.90;;;;;;4995408;28;20027;-81
2021/05/22 03:32:36;;;;;;;22.73;2.72;;;9.00;99.90;;;;;;4994082;28;20019;-81
2021/05/22 03:35:03;;;;;;;16.77;2.65;;;9.00;99.90;;;;;;4977702;28;20080;-81
2021/05/22 03:37:28;;;;;;;13.13;3.03;;;9.00;99.90;;;;;;4995451;28;20513;-81
2021/05/22 03:39:54;;;;;;;12.68;3.20;;;9.00;99.90;;;;;;4995186;28;20042;-81
2021/05/22 03:42:19;;;;;;;16.83;3.67;;;9.00;99.90;;;;;;4994201;28;20026;-81
2021/05/22 03:44:45;;;;;;;27.80;3.53;;;9.10;99.90;;;;;;4993777;28;20034;-82
2021/05/22 03:47:11;;;;;;;20.92;4.00;;;9.10;99.90;;;;;;4977961;28;20035;-82
2021/05/22 03:49:38;;;;;;;10.70;2.75;;;9.10;99.90;;;;;;4995008;28;20034;-81
2021/05/22 03:52:04;;;;;;;12.82;2.63;;;9.10;99.90;;;;;;4995345;28;20033;-80
2021/05/22 03:54:30;;;;;;;22.85;3.17;;;9.10;99.90;;;;;;4993780;28;20065;-81
2021/05/22 03:56:55;;;;;;;15.23;2.95;;;9.10;99.90;;;;;;4995079;28;20027;-81
2021/05/22 03:59:21;;;;;;;32.22;3.58;;;9.10;99.90;;;;;;4994836;28;20022;-81
2021/05/22 04:01:47;;;;;;;14.18;2.85;;;9.20;99.90;;;;;;4995141;28;20038;-80
2021/05/22 04:04:12;;;;;;;8.10;2.60;;;9.20;99.90;;;;;;4976290;28;20026;-80
2021/05/22 04:06:38;;;;;;;9.50;2.55;;;9.20;99.90;;;;;;4994771;28;20108;-80
2021/05/22 04:09:04;;;;;;;14.98;3.08;;;9.20;99.90;;;;;;4994600;28;20022;-81
2021/05/22 04:11:30;;;;;;;22.10;3.30;;;9.20;99.90;;;;;;4994838;28;20057;-80
2021/05/22 04:13:55;;;;;;;14.55;3.28;;;9.10;99.90;;;;;;4993524;28;20104;-81
2021/05/22 04:16:21;;;;;;;16.73;2.60;;;9.10;99.90;;;;;;4994761;28;20026;-80
2021/05/22 04:18:46;;;;;;;13.23;2.35;;;9.10;99.90;;;;;;4994519;28;20030;-80
2021/05/22 04:21:12;;;;;;;8.52;2.40;;;9.20;99.90;;;;;;4977302;28;20487;-80
2021/05/22 04:23:38;;;;;;;19.33;3.92;;;9.20;99.90;;;;;;4995520;28;20037;-80
2021/05/22 04:26:04;;;;;;;17.02;2.55;;;9.20;99.90;;;;;;4977055;28;20109;-80
2021/05/22 04:28:30;;;;;;;23.05;3.75;;;9.10;99.90;;;;;;4994334;28;20460;-80
2021/05/22 04:30:55;;;;;;;11.02;2.78;;;9.10;99.90;;;;;;4993066;28;20458;-80
2021/05/22 04:33:21;;;;;;;16.13;3.28;;;9.10;99.90;;;;;;4992877;28;20434;-80
2021/05/22 04:35:47;;;;;;;12.23;2.95;;;9.10;99.90;;;;;;4994204;28;20058;-79
2021/05/22 04:38:13;;;;;;;13.23;3.47;;;9.10;99.90;;;;;;4994477;28;20027;-80
2021/05/22 04:40:38;;;;;;;8.77;2.35;;;9.10;99.90;;;;;;4976652;28;20030;-80
2021/05/22 04:43:04;;;;;;;16.73;2.83;;;9.10;99.90;;;;;;4994304;28;20506;-79
2021/05/22 04:45:29;;;;;;;23.13;3.60;;;9.10;99.90;;;;;;4993885;28;20038;-80
2021/05/22 04:47:55;;;;;;;13.63;2.90;;;9.20;99.90;;;;;;4993852;28;20438;-80
2021/05/22 04:50:21;;;;;;;13.98;2.65;;;9.20;99.90;;;;;;4976739;28;20030;-80
2021/05/22 04:52:46;;;;;;;25.35;3.40;;;9.20;99.90;;;;;;4994272;28;20054;-80
2021/05/22 04:55:12;;;;;;;9.90;2.50;;;9.20;99.90;;;;;;4993707;28;20483;-80
2021/05/22 04:57:38;;;;;;;14.55;3.05;;;9.20;99.90;;;;;;4994037;28;20487;-80
2021/05/22 05:00:07;;;;;;;18.88;3.20;;;9.30;99.90;;;;;;4993870;28;20027;-80
2021/05/22 05:02:32;;;;;;;24.70;3.88;;;9.30;99.90;;;;;;4993939;28;20018;-80
2021/05/22 05:04:58;;;;;;;22.55;3.72;;;9.30;99.90;;;;;;4993361;28;20037;-80
2021/05/22 05:07:23;;;;;;;14.23;2.40;;;9.30;99.90;;;;;;4993840;28;20026;-79
2021/05/22 05:09:50;;;;;;;12.10;2.63;;;9.40;99.90;;;;;;4993378;28;20395;-80
2021/05/22 05:12:16;;;;;;;13.50;2.97;;;9.40;99.90;;;;;;4976399;28;20026;-80
2021/05/22 05:14:42;;;;;;;10.95;2.63;;;9.50;99.90;;;;;;4993341;28;20058;-79
2021/05/22 05:17:07;;;;;;;15.43;2.65;;;9.50;99.90;;;;;;4993592;28;20068;-80
2021/05/22 05:19:33;;;;;;;15.48;2.80;;;9.50;99.90;;;;;;4992064;28;20487;-80
2021/05/22 05:21:59;;;;;;;12.23;2.85;;;9.50;99.90;;;;;;4993594;28;20052;-80
2021/05/22 05:24:26;;;;;;;16.40;3.55;;;9.60;99.90;;;;;;4993224;28;20033;-80
2021/05/22 05:26:51;;;;;;;13.55;2.10;;;9.60;99.90;;;;;;4992269;28;20033;-80
2021/05/22 05:29:17;;;;;;;12.80;2.78;;;9.70;99.90;;;;;;4993143;28;20034;-80
2021/05/22 05:31:43;;;;;;;13.85;3.08;;;9.80;99.90;;;;;;4993043;28;20018;-79
2021/05/22 05:34:08;;;;;;;23.90;2.80;;;9.80;99.90;;;;;;4992940;28;20403;-79
2021/05/22 05:36:35;;;;;;;12.15;3.35;;;9.80;99.90;;;;;;4992027;28;20114;-80
2021/05/22 05:39:01;;;;;;;15.07;3.33;;;9.90;99.90;;;;;;4993238;28;20041;-80
2021/05/22 05:41:26;;;;;;;12.48;2.72;;;9.90;99.90;;;;;;4992035;28;20030;-80
2021/05/22 05:43:52;;;;;;;25.08;3.15;;;9.90;99.90;;;;;;4992658;28;20026;-80
2021/05/22 05:46:18;;;;;;;13.30;2.65;;;9.90;99.90;;;;;;4991781;28;20049;-80
2021/05/22 05:48:43;;;;;;;9.10;2.63;;;10.00;99.90;;;;;;4975460;28;20508;-80
2021/05/22 05:51:09;;;;;;;20.15;2.92;;;10.10;99.90;;;;;;4975702;28;20022;-80
2021/05/22 05:53:35;;;;;;;11.38;2.50;;;10.10;99.90;;;;;;4992495;28;20029;-79
2021/05/22 05:56:01;;;;;;;10.25;3.72;;;10.10;99.90;;;;;;4991523;28;20029;-79
2021/05/22 05:58:26;;;;;;;15.57;2.92;;;10.20;99.90;;;;;;4975575;28;20372;-80
2021/05/22 06:00:52;;;;;;;14.07;3.40;;;10.20;99.90;;;;;;4989925;28;20192;-79
2021/05/22 06:03:28;;;;;;;13.07;3.05;;;10.20;99.90;;;;;;4992170;28;20379;-80
2021/05/22 06:05:54;;;;;;;16.55;2.45;;;10.20;99.90;;;;;;4991125;28;20057;-79
2021/05/22 06:08:20;;;;;;;13.65;3.17;;;10.20;99.90;;;;;;4992441;28;20049;-80
2021/05/22 06:10:48;;;;;;;15.38;3.03;;;10.30;99.90;;;;;;4974999;28;20030;-79
2021/05/22 06:13:31;;;;;;;11.00;3.35;;;10.40;99.90;;;;;;4975182;28;20023;-79
2021/05/22 06:18:38;;;;;;;19.27;2.30;;;10.50;99.90;;;;;;4992241;28;20034;-80
2021/05/22 06:21:05;;;;;;;11.48;2.88;;;10.50;99.90;;;;;;4992514;28;20030;-79
2021/05/22 06:23:32;;;;;;;13.57;2.53;;;10.60;99.90;;;;;;4992476;28;20026;-79
2021/05/22 06:25:58;;;;;;;12.73;2.67;;;10.60;99.90;;;;;;4992343;28;20022;-79
2021/05/22 06:28:24;;;;;;;18.77;3.05;;;10.80;99.90;;;;;;4991633;28;20494;-79
2021/05/22 06:30:50;;;;;;;12.90;3.03;;;10.90;99.90;;;;;;4992315;28;20049;-80
2021/05/22 06:33:16;;;;;;;13.60;2.75;;;10.90;99.90;;;;;;4992305;28;20027;-79
2021/05/22 06:35:42;;;;;;;9.43;2.20;;;11.00;99.90;;;;;;4992205;28;20026;-79
2021/05/22 06:38:10;;;;;;;13.60;2.72;;;11.00;99.90;;;;;;4992327;28;20033;-80
2021/05/22 06:40:36;;;;;;;10.93;2.33;;;11.10;99.90;;;;;;4974604;28;20058;-80
2021/05/22 06:43:02;;;;;;;13.23;3.08;;;11.00;99.90;;;;;;4992385;28;20058;-80
2021/05/22 06:45:37;;;;;;;18.85;3.42;;;11.00;99.90;;;;;;4991928;28;20034;-79
2021/05/22 06:48:03;;;;;;;12.18;2.60;;;11.00;99.90;;;;;;4974564;28;20030;-79
2021/05/22 06:50:28;;;;;;;9.15;2.22;;;11.00;99.90;;;;;;4992339;28;20026;-79
2021/05/22 06:52:54;;;;;;;12.85;2.45;;;10.90;99.90;;;;;;4992188;28;20031;-80
2021/05/22 06:55:20;;;;;;;9.90;2.35;;;10.90;99.90;;;;;;4991863;28;20023;-79
2021/05/22 06:57:45;;;;;;;9.70;2.75;;;10.90;99.90;;;;;;4992239;28;20031;-78
2021/05/22 07:00:11;;;;;;;17.42;2.92;;;10.80;99.90;;;;;;4990763;28;20054;-79
2021/05/22 07:02:37;;;;;;;14.85;2.58;;;10.80;99.90;;;;;;4992155;28;20026;-79
2021/05/22 07:05:02;;;;;;;14.57;2.85;;;10.60;99.90;;;;;;4990454;28;20042;-79
2021/05/22 07:07:28;;;;;;;18.05;3.22;;;10.60;99.90;;;;;;4992425;28;20113;-80
2021/05/22 07:09:54;;;;;;;14.07;2.55;;;10.60;99.90;;;;;;4991623;28;20073;-79
2021/05/22 07:12:19;;;;;;;9.60;2.90;;;10.50;99.90;;;;;;4990884;28;20030;-79
2021/05/22 07:14:45;;;;;;;8.55;2.20;;;10.40;99.90;;;;;;4991619;28;20027;-79
2021/05/22 07:17:10;;;;;;;10.88;1.88;;;10.40;99.90;;;;;;4992070;28;20033;-79
2021/05/22 07:19:36;;;;;;;16.30;3.47;;;10.40;99.90;;;;;;4991703;28;20039;-79
2021/05/22 07:22:02;;;;;;;18.70;3.03;;;10.30;99.90;;;;;;4991990;28;20034;-79
2021/05/22 07:24:28;;;;;;;11.30;3.08;;;10.30;99.90;;;;;;4991699;28;20027;-79
2021/05/22 07:26:53;;;;;;;12.85;2.80;;;10.20;99.90;;;;;;4974576;28;20033;-79
2021/05/22 07:29:19;;;;;;;9.55;2.22;;;10.20;99.90;;;;;;4990873;28;20026;-80
2021/05/22 07:31:45;;;;;;;14.00;2.20;;;10.10;99.90;;;;;;4974327;28;20033;-79
2021/05/22 07:34:11;;;;;;;14.52;2.63;;;10.20;99.90;;;;;;4974078;28;20045;-79
2021/05/22 07:36:38;;;;;;;13.63;2.22;;;10.20;99.90;;;;;;4991804;28;20085;-79
2021/05/22 07:39:06;;;;;;;14.02;3.20;;;10.20;99.90;;;;;;4991678;28;20049;-79
2021/05/22 07:41:32;;;;;;;15.20;2.53;;;10.10;99.90;;;;;;4993831;28;20030;-79
2021/05/22 07:43:58;;;;;;;12.73;2.78;;;10.10;99.90;;;;;;4993786;28;20394;-79
2021/05/22 07:46:23;;;;;;;15.30;2.53;;;10.10;99.90;;;;;;4995128;28;20041;-79
2021/05/22 07:48:49;;;;;;;17.40;3.25;;;10.00;99.90;;;;;;4993884;28;20124;-79
2021/05/22 07:51:15;;;;;;;12.73;2.30;;;10.10;99.90;;;;;;4977815;28;20022;-79
2021/05/22 07:53:41;;;;;;;7.72;2.25;;;10.10;99.90;;;;;;4995062;28;20030;-79
2021/05/22 07:56:07;;;;;;;21.33;3.30;;;10.10;99.90;;;;;;4977507;28;20438;-80
2021/05/22 07:58:33;;;;;;;10.05;2.65;;;10.10;99.90;;;;;;4993378;28;20034;-82
2021/05/22 08:00:58;;;;;;;10.65;2.80;;;10.20;99.90;;;;;;4995108;28;20041;-80
2021/05/22 08:03:24;;;;;;;12.10;2.70;;;10.20;99.90;;;;;;4977351;28;20087;-80
2021/05/22 08:05:49;;;;;;;12.57;2.97;;;10.20;99.90;;;;;;4993396;28;20487;-79
2021/05/22 08:08:15;;;;;;;17.70;2.97;;;10.30;99.90;;;;;;4994803;28;20030;-80
2021/05/22 08:10:40;;;;;;;10.38;2.92;;;10.30;99.90;;;;;;4994695;28;20026;-80
2021/05/22 08:13:09;;;;;;;10.55;3.15;;;10.40;99.90;;;;;;4994648;28;20106;-79
2021/05/22 08:15:35;;;;;;;14.07;2.67;;;10.40;99.90;;;;;;4977101;28;20089;-81
2021/05/22 08:18:00;;;;;;;7.75;3.05;;;10.40;99.90;;;;;;4994479;28;20023;-78
2021/05/22 08:20:26;;;;;;;17.80;3.70;;;10.40;99.90;;;;;;4993272;28;20031;-79
2021/05/22 08:22:51;;;;;;;16.92;2.90;;;10.40;99.90;;;;;;4977246;28;20026;-80
2021/05/22 08:25:17;;;;;;;14.43;3.25;;;10.30;99.90;;;;;;4993731;28;20061;-80
2021/05/22 08:27:43;;;;;;;12.18;3.35;;;10.40;99.90;;;;;;4982311;28;20105;-80
2021/05/22 08:30:10;;;;;;;24.20;4.43;;;10.30;99.90;;;;;;4990002;28;20030;-80
2021/05/22 08:32:35;;;;;;;8.90;2.88;;;10.40;99.90;;;;;;5001784;28;20494;-80
2021/05/22 08:35:01;;;;;;;11.98;3.63;;;10.40;99.90;;;;;;4989614;28;20113;-80
2021/05/22 08:37:27;;;;;;;18.90;4.20;;;10.20;99.90;;;;;;5002531;28;20055;-80
2021/05/22 08:39:53;;;;;;;16.15;3.55;;;10.20;99.90;;;;;;4991889;28;20061;-80
2021/05/22 08:42:25;;;;;;;15.75;3.53;;;10.10;99.90;;;;;;4989533;28;20081;-80
2021/05/22 08:44:51;;;;;;;6.85;2.45;;;10.00;99.90;;;;;;4998174;28;20121;-81
2021/05/22 08:47:17;;;;;;;9.63;3.50;;;10.00;99.90;;;;;;4990364;28;20217;-81
2021/05/22 08:49:43;;;;;;;7.32;2.90;;;9.90;99.90;;;;;;4998742;28;20077;-79
2021/05/22 08:52:12;;;;;;;12.27;3.88;;;9.80;99.90;;;;;;4989813;28;20034;-80
2021/05/22 08:54:39;;;;;;;13.05;3.10;;;9.80;99.90;;;;;;4988907;28;20026;-82
2021/05/22 08:57:05;;;;;;;12.00;3.72;;;9.70;99.90;;;;;;4989728;28;20058;-80
2021/05/22 08:59:30;;;;;;;12.05;4.13;;;9.70;99.90;;;;;;4989628;28;20053;-83
2021/05/22 09:01:57;;;;;;;12.75;3.60;;;9.70;99.90;;;;;;4988810;28;20093;-81
2021/05/22 09:04:22;;;;;;;9.48;3.67;;;9.70;99.90;;;;;;4988581;28;20034;-85
2021/05/22 09:07:05;;;;;;;9.65;3.40;;;9.70;99.90;;;;;;4988750;28;20040;-83
2021/05/22 09:09:39;;;;;;;17.35;3.90;;;9.70;99.90;;;;;;4990114;28;20053;-84
2021/05/22 09:12:05;;;;;;;16.45;5.25;;;9.70;99.90;;;;;;4998672;28;20023;-84
2021/05/22 09:14:48;;;;;;;14.63;4.15;;;9.70;99.90;;;;;;4989934;28;20590;-83
2021/05/22 09:17:15;;;;;;;13.65;4.15;;;9.70;99.90;;;;;;4998330;28;20518;-85
2021/05/22 09:19:41;;;;;;;17.38;4.72;;;9.70;99.90;;;;;;4989130;28;20042;-83
2021/05/22 09:22:24;;;;;;;21.95;4.45;;;9.80;99.90;;;;;;4980607;28;20531;-83
2021/05/22 09:25:00;;;;;;;17.10;3.25;;;9.90;99.90;;;;;;4988542;28;20033;-86
2021/05/22 09:27:38;;;;;;;11.95;3.60;;;9.90;99.90;;;;;;4989768;28;20037;-83
2021/05/22 09:30:14;;;;;;;17.30;4.47;;;10.00;99.90;;;;;;4975953;28;20030;-82
2021/05/22 09:32:41;;;;;;;10.00;4.03;;;10.00;99.90;;;;;;4993354;28;20025;-82
2021/05/22 09:35:09;;;;;;;15.20;4.28;;;10.00;99.90;;;;;;4975391;28;20033;-83
2021/05/22 09:37:55;;;;;;;17.52;4.38;;;10.00;99.90;;;;;;4992158;28;20096;-83
2021/05/22 09:40:28;;;;;;;14.90;4.22;;;10.00;99.90;;;;;;4993087;28;20037;-83
2021/05/22 09:42:54;;;;;;;11.13;4.00;;;10.00;99.90;;;;;;4975684;28;20033;-83
2021/05/22 09:45:22;;;;;;;17.50;5.28;;;10.00;99.90;;;;;;4991278;28;20125;-83
2021/05/22 09:47:48;;;;;;;12.93;4.00;;;10.00;99.90;;;;;;4991778;28;20018;-84
2021/05/22 09:50:32;;;;;;;6.97;3.53;;;9.90;99.90;;;;;;4975499;28;20045;-83
2021/05/22 09:52:59;;;;;;;8.55;3.83;;;10.00;99.90;;;;;;4991521;28;20023;-82
2021/05/22 09:55:25;;;;;;;9.35;4.25;;;10.00;99.90;;;;;;4992434;28;20089;-85
2021/05/22 09:57:53;;;;;;;10.82;4.10;;;10.10;99.90;;;;;;4992745;28;20061;-83
2021/05/22 10:00:20;;;;;;;14.82;4.30;;;10.20;99.90;;;;;;4970682;28;20026;-84
2021/05/22 10:02:57;;;;;;;9.43;4.00;;;10.30;99.90;;;;;;4987641;28;20062;-84
2021/05/22 10:05:25;;;;;;;8.73;4.63;;;10.20;99.90;;;;;;4996206;28;20117;-81
2021/05/22 10:07:52;;;;;;;12.63;4.07;;;10.10;99.90;;;;;;4988614;28;20026;-84
2021/05/22 10:10:19;;;;;;;16.02;4.55;;;10.10;99.90;;;;;;4998737;28;20121;-86
2021/05/22 10:12:46;;;;;;;13.93;4.40;;;10.20;99.90;;;;;;4988630;28;20490;-85
2021/05/22 10:15:14;;;;;;;11.68;4.13;;;10.20;99.90;;;;;;4987827;28;20403;-84
2021/05/22 10:17:40;;;;;;;18.13;4.45;;;10.20;99.90;;;;;;4988564;28;20050;-85
2021/05/22 10:20:07;;;;;;;16.85;4.80;;;10.30;99.90;;;;;;4991452;28;20034;-85
2021/05/22 10:22:33;;;;;;;8.77;4.10;;;10.40;99.90;;;;;;4990708;28;20089;-88
2021/05/22 10:25:01;;;;;;;10.75;3.42;;;10.40;99.90;;;;;;4992097;28;20034;-85
2021/05/22 10:27:27;;;;;;;12.35;4.07;;;10.50;99.90;;;;;;4992603;28;20101;-83
2021/05/22 10:29:53;;;;;;;7.63;3.38;;;10.60;99.90;;;;;;4992391;28;20118;-83
2021/05/22 10:32:25;;;;;;;11.82;3.85;;;10.50;99.90;;;;;;4991261;28;20030;-82
2021/05/22 10:34:51;;;;;;;7.65;3.30;;;10.50;99.90;;;;;;4990652;28;20027;-82
2021/05/22 10:37:35;;;;;;;15.60;3.45;;;10.50;99.90;;;;;;4975036;28;20109;-82
2021/05/22 10:40:02;;;;;;;10.43;3.00;;;10.60;99.90;;;;;;4992348;28;20022;-82
2021/05/22 10:42:30;;;;;;;6.05;2.80;;;10.50;99.90;;;;;;4974955;28;20118;-83
2021/05/22 10:44:57;;;;;;;9.88;3.10;;;10.50;99.90;;;;;;4990491;28;20534;-83
2021/05/22 10:47:36;;;;;;;16.40;3.67;;;10.40;99.90;;;;;;4985907;28;20676;-83
2021/05/22 10:50:05;;;;;;;12.75;4.03;;;10.30;99.90;;;;;;4988053;28;20029;-81
2021/05/22 10:52:33;;;;;;;8.40;3.33;;;10.30;99.90;;;;;;4989124;28;20542;-82
2021/05/22 10:54:59;;;;;;;10.65;4.05;;;10.30;99.90;;;;;;4987405;28;20042;-80
2021/05/22 10:57:26;;;;;;;20.52;3.88;;;10.40;99.90;;;;;;4988162;28;20027;-82
2021/05/22 11:00:13;;;;;;;11.63;3.58;;;10.40;99.90;;;;;;4988735;28;20030;-83
2021/05/22 11:02:41;;;;;;;13.80;3.53;;;10.50;99.90;;;;;;4988200;28;20058;-81
2021/05/22 11:05:22;;;;;;;12.15;3.72;;;10.50;99.90;;;;;;4979690;28;20032;-83
2021/05/22 11:07:48;;;;;;;10.40;4.13;;;10.50;99.90;;;;;;4988189;28;20568;-83
2021/05/22 11:10:36;;;;;;;14.10;3.70;;;10.50;99.90;;;;;;4989935;28;20052;-82
2021/05/22 11:13:03;;;;;;;7.97;3.80;;;10.60;99.90;;;;;;4992097;28;20030;-81
2021/05/22 11:15:47;;;;;;;12.75;4.07;;;10.60;99.90;;;;;;5003494;28;20034;-80
2021/05/22 11:18:17;;;;;;;;;;;10.60;99.90;;;;;;4995009;28;20096;-81
2021/05/22 11:21:03;;;;;;;10.52;4.03;;;10.50;99.90;;;;;;4995536;28;19913;-81
2021/05/22 11:23:29;;;;;;;8.23;3.50;;;10.50;99.90;;;;;;4995620;28;20057;-81
2021/05/22 11:25:55;;;;;;;11.93;4.13;;;10.50;99.90;;;;;;4995142;28;20061;-83
2021/05/22 11:28:22;;;;;;;13.90;4.05;;;10.50;99.90;;;;;;4995539;28;20026;-82
2021/05/22 11:30:49;;;;;;;18.48;4.28;;;10.50;99.90;;;;;;4995670;28;20042;-80
2021/05/22 11:33:20;;;;;;;14.52;4.80;;;10.50;99.90;;;;;;4994328;28;20030;-81
2021/05/22 11:35:49;;;;;;;19.88;3.92;;;10.50;99.90;;;;;;4993845;28;20438;-80
2021/05/22 11:38:17;;;;;;;14.73;5.05;;;10.50;99.90;;;;;;4995475;28;20053;-81
2021/05/22 11:40:43;;;;;;;11.80;4.70;;;10.50;99.90;;;;;;4995525;28;20026;-80
2021/05/22 11:43:15;;;;;;;19.05;4.65;;;10.50;99.90;;;;;;4995498;28;20182;-80
2021/05/22 11:45:45;;;;;;;11.88;4.43;;;10.40;99.90;;;;;;4993298;28;20532;-80
2021/05/22 11:48:35;;;;;;;13.52;5.43;;;10.40;99.90;;;;;;4993954;28;20031;-81
2021/05/22 11:51:24;;;;;;;12.98;5.68;;;10.50;99.90;;;;;;4993744;28;20060;-81
2021/05/22 11:54:08;;;;;;;12.77;5.53;;;10.50;99.90;;;;;;4994937;28;20045;-81
2021/05/22 11:56:35;;;;;;;18.60;5.28;;;10.50;99.90;;;;;;4993436;28;20399;-81
2021/05/22 11:59:02;;;;;;;14.98;4.80;;;10.60;99.90;;;;;;4995070;28;20073;-81
2021/05/22 12:01:37;;;;;;;14.73;4.43;;;10.70;99.90;;;;;;4993800;28;20077;-79
2021/05/22 12:04:12;;;;;;;23.02;5.03;;;10.60;99.90;;;;;;4994613;28;20105;-80
2021/05/22 12:06:47;;;;;;;16.02;4.97;;;10.60;99.90;;;;;;4975483;28;20041;-81
2021/05/22 12:09:13;;;;;;;11.05;4.10;;;10.60;99.90;;;;;;4970986;28;20076;-81
2021/05/22 12:11:58;;;;;;;16.58;4.68;;;10.60;99.90;;;;;;4993617;28;20034;-82
2021/05/22 12:14:35;;;;;;;25.25;5.40;;;10.70;99.90;;;;;;4992843;28;20495;-81
2021/05/22 12:17:00;;;;;;;17.48;4.90;;;10.60;99.90;;;;;;4993348;28;20085;-83
2021/05/22 12:19:33;;;;;;;19.73;5.03;;;10.70;99.90;;;;;;4994172;28;20030;-81
2021/05/22 12:21:59;;;;;;;14.57;5.70;;;10.70;99.90;;;;;;4994610;28;20114;-82
2021/05/22 12:24:25;;;;;;;24.52;5.53;;;10.80;99.90;;;;;;4993090;28;20113;-80
2021/05/22 12:26:54;;;;;;;17.48;5.72;;;11.00;99.90;;;;;;4993963;28;20030;-81
2021/05/22 12:29:22;;;;;;;12.13;4.68;;;11.10;99.90;;;;;;4992907;28;20598;-80
2021/05/22 12:31:52;;;;;;;16.02;4.72;;;11.00;99.90;;;;;;4994561;28;20105;-82
2021/05/22 12:34:23;;;;;;;14.52;4.38;;;11.10;99.90;;;;;;4993692;28;20438;-80
2021/05/22 12:36:57;;;;;;;15.43;5.10;;;10.90;99.90;;;;;;4994793;28;20043;-80
2021/05/22 12:39:29;;;;;;;;;;;10.80;99.90;;;;;;4994612;28;20573;-79
2021/05/22 12:41:54;;;;;;;13.00;5.30;;;10.80;99.90;;;;;;4994339;28;19906;-80
2021/05/22 12:44:21;;;;;;;20.67;6.90;;;10.80;99.90;;;;;;4993645;28;20491;-80
2021/05/22 12:46:58;;;;;;;21.65;6.85;;;11.10;99.90;;;;;;4994240;28;20033;-80
2021/05/22 12:49:31;;;;;;;20.13;6.35;;;11.30;99.90;;;;;;4992240;28;20033;-80